Time;durP1;ratioP1;P1;durP2;ratioP2;P2;SDS_P1;SDS_P2;PMS_P1;PMS_P2;Temp;Humidity;BMP_temperature;BMP_pressure;BME280_temperature;BME280_humidity;BME280_pressure;Samples;Min_cycle;Max_cycle;Signal;HPM_P1;HPM_P2
2021/06/30 00:00:20;;;;;;;0.22;0.22;;;18.60;74.60;;;;;;5055358;28;20175;-65
2021/06/30 00:02:46;;;;;;;0.20;0.20;;;18.60;74.70;;;;;;5042598;28;20052;-65
2021/06/30 00:05:13;;;;;;;0.13;0.13;;;18.60;74.70;;;;;;5047148;28;20127;-65
2021/06/30 00:07:39;;;;;;;0.20;0.20;;;18.60;74.70;;;;;;5023661;28;20140;-65
2021/06/30 00:10:07;;;;;;;0.10;0.10;;;18.60;74.70;;;;;;5054393;28;20179;-65
2021/06/30 00:12:35;;;;;;;0.20;0.20;;;18.60;74.70;;;;;;5049630;28;20145;-65
2021/06/30 00:15:09;;;;;;;0.20;0.20;;;18.60;74.70;;;;;;5049514;28;20139;-65
2021/06/30 00:17:35;;;;;;;0.10;0.10;;;18.60;74.80;;;;;;5054845;28;20132;-65
2021/06/30 00:20:05;;;;;;;0.30;0.30;;;18.60;74.80;;;;;;5054647;28;20528;-65
2021/06/30 00:22:32;;;;;;;0.50;0.50;;;18.60;75.20;;;;;;5054608;28;20052;-65
2021/06/30 00:24:59;;;;;;;0.30;0.30;;;18.60;75.50;;;;;;5054304;28;20091;-65
2021/06/30 00:27:25;;;;;;;0.32;0.30;;;18.60;75.60;;;;;;5052999;28;20132;-65
2021/06/30 00:29:52;;;;;;;0.30;0.30;;;18.50;75.70;;;;;;5049164;28;20080;-65
2021/06/30 00:32:18;;;;;;;0.43;0.40;;;18.50;75.70;;;;;;5044573;28;20056;-65
2021/06/30 00:34:45;;;;;;;0.20;0.20;;;18.60;75.80;;;;;;5051912;28;20611;-65
2021/06/30 00:37:11;;;;;;;0.20;0.20;;;18.60;76.00;;;;;;5054530;28;20198;-65
2021/06/30 00:39:37;;;;;;;0.20;0.20;;;18.60;75.80;;;;;;5053945;28;20447;-65
2021/06/30 00:42:04;;;;;;;0.30;0.30;;;18.60;75.80;;;;;;5054297;28;20171;-65
2021/06/30 00:44:33;;;;;;;0.35;0.35;;;18.60;75.80;;;;;;5054297;28;20083;-65
2021/06/30 00:47:01;;;;;;;0.30;0.30;;;18.60;76.00;;;;;;5054421;28;20127;-65
2021/06/30 00:49:28;;;;;;;0.30;0.30;;;18.60;76.10;;;;;;5054286;28;20048;-65
2021/06/30 00:51:54;;;;;;;0.20;0.20;;;18.60;76.20;;;;;;5054177;28;20135;-65
2021/06/30 00:54:21;;;;;;;0.20;0.20;;;18.60;76.20;;;;;;5054085;28;20056;-65
2021/06/30 00:56:48;;;;;;;0.20;0.20;;;18.60;76.20;;;;;;5036033;28;20049;-65
2021/06/30 00:59:14;;;;;;;0.20;0.20;;;18.60;76.20;;;;;;5053536;28;20138;-65
2021/06/30 01:01:40;;;;;;;0.15;0.15;;;18.60;76.30;;;;;;5054082;28;20045;-65
2021/06/30 01:04:08;;;;;;;0.30;0.30;;;18.60;76.20;;;;;;5053960;28;20055;-65
2021/06/30 01:06:38;;;;;;;;;;;18.60;76.30;;;;;;5054441;28;20049;-65
2021/06/30 01:09:07;;;;;;;0.30;0.30;;;18.60;76.50;;;;;;5053559;28;19924;-65
2021/06/30 01:11:33;;;;;;;0.20;0.20;;;18.60;76.40;;;;;;5053552;28;20061;-65
2021/06/30 01:14:00;;;;;;;0.40;0.40;;;18.60;76.40;;;;;;5031724;28;20160;-65
2021/06/30 01:16:26;;;;;;;0.30;0.30;;;18.60;76.50;;;;;;5033580;28;20104;-65
2021/06/30 01:18:53;;;;;;;0.40;0.40;;;18.60;76.50;;;;;;5033634;28;20188;-65
2021/06/30 01:21:19;;;;;;;0.30;0.30;;;18.60;76.70;;;;;;5033724;28;20143;-65
2021/06/30 01:23:45;;;;;;;0.35;0.35;;;18.60;77.00;;;;;;5033537;28;20053;-65
2021/06/30 01:26:13;;;;;;;0.35;0.35;;;18.50;77.00;;;;;;5033431;28;20122;-65
2021/06/30 01:28:39;;;;;;;0.63;0.40;;;18.50;77.20;;;;;;5033497;28;20125;-65
2021/06/30 01:31:07;;;;;;;0.28;0.28;;;18.50;77.20;;;;;;5033664;28;20057;-65
2021/06/30 01:33:34;;;;;;;0.30;0.30;;;18.50;77.10;;;;;;5033385;28;20049;-65
2021/06/30 01:36:02;;;;;;;0.40;0.40;;;18.50;77.10;;;;;;5033009;28;20049;-65
2021/06/30 01:38:29;;;;;;;0.30;0.30;;;18.50;77.10;;;;;;5033192;28;20053;-65
2021/06/30 01:40:57;;;;;;;0.40;0.40;;;18.60;77.10;;;;;;5033279;28;20060;-65
2021/06/30 01:43:24;;;;;;;0.30;0.30;;;18.60;77.20;;;;;;5033112;28;20045;-65
2021/06/30 01:45:55;;;;;;;0.20;0.20;;;18.60;77.10;;;;;;5032830;28;20488;-65
2021/06/30 01:48:22;;;;;;;0.40;0.40;;;18.60;77.20;;;;;;5033029;28;20086;-65
2021/06/30 01:50:49;;;;;;;0.35;0.35;;;18.60;77.40;;;;;;5033033;28;20595;-65
2021/06/30 01:53:19;;;;;;;0.47;0.47;;;18.50;77.30;;;;;;5032867;28;20068;-65
2021/06/30 01:55:46;;;;;;;0.40;0.40;;;18.50;77.60;;;;;;5032492;28;20131;-65
2021/06/30 01:58:16;;;;;;;0.30;0.30;;;18.50;77.60;;;;;;5032856;28;20081;-65
2021/06/30 02:00:42;;;;;;;0.30;0.30;;;18.50;77.80;;;;;;5033015;28;20049;-65
2021/06/30 02:03:09;;;;;;;0.30;0.30;;;18.50;77.60;;;;;;5032277;28;20139;-65
2021/06/30 02:05:35;;;;;;;0.22;0.22;;;18.50;77.60;;;;;;5032808;28;20044;-65
2021/06/30 02:08:02;;;;;;;0.30;0.30;;;18.50;77.60;;;;;;5032900;28;20241;-65
2021/06/30 02:10:29;;;;;;;0.30;0.30;;;18.50;77.70;;;;;;5032615;28;20077;-65
2021/06/30 02:12:56;;;;;;;0.32;0.32;;;18.50;77.60;;;;;;5032353;28;20060;-65
2021/06/30 02:15:29;;;;;;;0.20;0.20;;;18.50;77.70;;;;;;5032455;28;20508;-65
2021/06/30 02:17:59;;;;;;;0.28;0.28;;;18.50;77.60;;;;;;5032485;28;20130;-65
2021/06/30 02:20:27;;;;;;;0.40;0.40;;;18.50;77.90;;;;;;5031527;28;20128;-65
2021/06/30 02:22:55;;;;;;;0.30;0.30;;;18.50;77.90;;;;;;5032475;28;20041;-65
2021/06/30 02:25:24;;;;;;;0.40;0.40;;;18.50;77.70;;;;;;5032373;28;20132;-65
2021/06/30 02:27:51;;;;;;;0.40;0.40;;;18.50;77.90;;;;;;5032483;28;20092;-65
2021/06/30 02:30:21;;;;;;;0.40;0.40;;;18.50;77.80;;;;;;5032723;28;20129;-65
2021/06/30 02:32:47;;;;;;;0.60;0.60;;;18.50;77.80;;;;;;5032270;28;20183;-65
2021/06/30 02:35:17;;;;;;;0.50;0.50;;;18.50;77.90;;;;;;5031674;28;20160;-65
2021/06/30 02:37:45;;;;;;;0.50;0.50;;;18.50;78.20;;;;;;5032337;28;20135;-65
2021/06/30 02:40:13;;;;;;;0.55;0.55;;;18.40;78.30;;;;;;5032114;28;20053;-65
2021/06/30 02:42:41;;;;;;;0.65;0.65;;;18.40;78.50;;;;;;5031828;28;20080;-65
2021/06/30 02:45:13;;;;;;;0.55;0.55;;;18.30;78.70;;;;;;5032332;28;20073;-65
2021/06/30 02:47:40;;;;;;;0.60;0.60;;;18.30;79.10;;;;;;5014134;28;20516;-65
2021/06/30 02:50:08;;;;;;;0.50;0.50;;;18.20;79.10;;;;;;5031877;28;20553;-65
2021/06/30 02:52:35;;;;;;;0.60;0.60;;;18.20;79.30;;;;;;5031934;28;20146;-65
2021/06/30 02:55:03;;;;;;;0.40;0.40;;;18.20;79.50;;;;;;5031303;28;20045;-65
2021/06/30 02:57:29;;;;;;;0.60;0.60;;;18.20;79.40;;;;;;5031976;28;20057;-65
2021/06/30 02:59:55;;;;;;;0.45;0.45;;;18.20;79.50;;;;;;5031719;28;20060;-65
2021/06/30 03:02:22;;;;;;;0.30;0.30;;;18.20;79.40;;;;;;5031910;28;20053;-65
2021/06/30 03:04:48;;;;;;;0.70;0.70;;;18.20;79.40;;;;;;5031731;28;20108;-65
2021/06/30 03:07:14;;;;;;;0.50;0.50;;;18.20;79.30;;;;;;5031522;28;20519;-65
2021/06/30 03:09:40;;;;;;;0.52;0.52;;;18.20;79.20;;;;;;5032041;28;20049;-65
2021/06/30 03:12:07;;;;;;;0.50;0.50;;;18.30;79.20;;;;;;5031168;28;20053;-65
2021/06/30 03:14:34;;;;;;;0.47;0.47;;;18.30;79.10;;;;;;5024293;28;20403;-65
2021/06/30 03:17:00;;;;;;;0.50;0.50;;;18.30;79.10;;;;;;5027772;28;20564;-65
2021/06/30 03:19:27;;;;;;;0.50;0.50;;;18.30;79.00;;;;;;5031450;28;20128;-65
2021/06/30 03:21:53;;;;;;;0.50;0.50;;;18.30;78.90;;;;;;5031171;28;20520;-65
2021/06/30 03:24:19;;;;;;;0.30;0.30;;;18.30;79.00;;;;;;5031580;28;20128;-65
2021/06/30 03:26:46;;;;;;;0.57;0.57;;;18.30;78.90;;;;;;5031526;28;20045;-65
2021/06/30 03:29:12;;;;;;;0.70;0.70;;;18.30;78.90;;;;;;5031351;28;20150;-65
2021/06/30 03:31:38;;;;;;;0.70;0.70;;;18.40;79.00;;;;;;5031329;28;20242;-65
2021/06/30 03:34:05;;;;;;;0.50;0.50;;;18.30;79.00;;;;;;5013074;28;20479;-65
2021/06/30 03:36:31;;;;;;;0.40;0.40;;;18.30;79.00;;;;;;5031058;28;20045;-65
2021/06/30 03:38:57;;;;;;;0.60;0.60;;;18.40;79.00;;;;;;5031367;28;20084;-65
2021/06/30 03:41:24;;;;;;;0.60;0.60;;;18.30;79.00;;;;;;5031194;28;20045;-65
2021/06/30 03:43:50;;;;;;;0.40;0.40;;;18.30;79.00;;;;;;5030747;28;20097;-65
2021/06/30 03:46:17;;;;;;;0.50;0.50;;;18.30;79.00;;;;;;5031198;28;20144;-65
2021/06/30 03:48:43;;;;;;;0.60;0.60;;;18.30;78.90;;;;;;5031045;28;20049;-65
2021/06/30 03:51:09;;;;;;;0.50;0.50;;;18.30;79.00;;;;;;5031435;28;20045;-65
2021/06/30 03:53:35;;;;;;;0.47;0.47;;;18.30;79.00;;;;;;5031401;28;20085;-65
2021/06/30 03:56:02;;;;;;;0.50;0.50;;;18.30;78.90;;;;;;5031389;28;20045;-65
2021/06/30 03:58:30;;;;;;;0.40;0.40;;;18.30;78.90;;;;;;5031215;28;20180;-65
2021/06/30 04:00:57;;;;;;;0.68;0.68;;;18.30;79.00;;;;;;5030693;28;20144;-65
2021/06/30 04:03:24;;;;;;;0.50;0.50;;;18.30;79.00;;;;;;5030933;28;20128;-65
2021/06/30 04:05:51;;;;;;;0.70;0.70;;;18.30;78.90;;;;;;5024750;28;20555;-65
2021/06/30 04:08:17;;;;;;;0.50;0.50;;;18.30;78.90;;;;;;5025719;28;20147;-65
2021/06/30 04:10:44;;;;;;;0.40;0.40;;;18.30;78.80;;;;;;5030922;28;20163;-65
2021/06/30 04:13:11;;;;;;;0.50;0.50;;;18.30;78.70;;;;;;5030496;28;20140;-65
2021/06/30 04:15:38;;;;;;;0.82;0.82;;;18.30;78.60;;;;;;5026447;28;20135;-65
2021/06/30 04:18:07;;;;;;;0.50;0.50;;;18.30;78.50;;;;;;5030737;28;20131;-65
2021/06/30 04:20:33;;;;;;;0.60;0.60;;;18.30;79.30;;;;;;5030882;28;20050;-66
2021/06/30 04:23:00;;;;;;;0.85;0.85;;;18.30;78.40;;;;;;5030117;28;20124;-65
2021/06/30 04:25:26;;;;;;;0.50;0.50;;;18.30;78.30;;;;;;5024327;28;20559;-65
2021/06/30 04:27:53;;;;;;;0.40;0.40;;;18.20;78.20;;;;;;5024546;28;20050;-65
2021/06/30 04:30:19;;;;;;;0.63;0.63;;;18.30;78.30;;;;;;5020978;28;20049;-65
2021/06/30 04:32:46;;;;;;;0.70;0.60;;;18.30;78.00;;;;;;5030230;28;20055;-65
2021/06/30 04:35:13;;;;;;;0.45;0.45;;;18.20;78.00;;;;;;5029587;28;20149;-65
2021/06/30 04:37:39;;;;;;;0.60;0.60;;;18.20;79.00;;;;;;5027483;28;20050;-65
2021/06/30 04:40:06;;;;;;;0.60;0.60;;;18.20;78.00;;;;;;5033683;28;20114;-65
2021/06/30 04:42:33;;;;;;;0.30;0.30;;;18.20;77.90;;;;;;5014507;28;20179;-65
2021/06/30 04:44:59;;;;;;;0.40;0.40;;;18.20;77.80;;;;;;5032697;28;20494;-65
2021/06/30 04:47:25;;;;;;;0.30;0.30;;;18.20;77.60;;;;;;5032989;28;20037;-65
2021/06/30 04:49:52;;;;;;;0.43;0.43;;;18.30;77.60;;;;;;5032900;28;20136;-65
2021/06/30 04:52:18;;;;;;;0.25;0.25;;;18.30;77.50;;;;;;5029459;28;20046;-65
2021/06/30 04:54:44;;;;;;;0.45;0.45;;;18.30;77.40;;;;;;5027941;28;20049;-65
2021/06/30 04:57:11;;;;;;;0.30;0.30;;;18.30;77.40;;;;;;5030526;28;20128;-65
2021/06/30 04:59:37;;;;;;;0.40;0.40;;;18.30;77.30;;;;;;5026623;28;20092;-65
2021/06/30 05:02:04;;;;;;;0.40;0.40;;;18.30;77.20;;;;;;5030001;28;20164;-65
2021/06/30 05:04:30;;;;;;;0.90;0.50;;;18.30;77.20;;;;;;5034237;28;20132;-65
2021/06/30 05:06:56;;;;;;;0.40;0.40;;;18.30;77.20;;;;;;5033922;28;20164;-65
2021/06/30 05:09:22;;;;;;;0.40;0.40;;;18.30;77.20;;;;;;5033648;28;20125;-65
2021/06/30 05:11:49;;;;;;;0.65;0.60;;;18.30;77.20;;;;;;5033427;28;20179;-66
2021/06/30 05:14:15;;;;;;;0.30;0.30;;;18.30;77.20;;;;;;5032552;28;20057;-65
2021/06/30 05:16:41;;;;;;;0.32;0.32;;;18.30;77.20;;;;;;5033937;28;20128;-69
2021/06/30 05:19:09;;;;;;;0.38;0.30;;;18.30;77.10;;;;;;5033637;28;20136;-65
2021/06/30 05:21:35;;;;;;;0.38;0.38;;;18.30;77.00;;;;;;5033683;28;20061;-65
2021/06/30 05:24:01;;;;;;;0.30;0.30;;;18.30;76.90;;;;;;5033048;28;20045;-66
2021/06/30 05:26:28;;;;;;;0.20;0.20;;;18.30;76.90;;;;;;5033372;28;20146;-66
2021/06/30 05:28:54;;;;;;;0.20;0.20;;;18.30;76.90;;;;;;5032512;28;20256;-65
2021/06/30 05:31:20;;;;;;;0.30;0.30;;;18.30;76.90;;;;;;5032534;28;20041;-65
2021/06/30 05:33:47;;;;;;;0.30;0.30;;;18.30;77.00;;;;;;5033550;28;20103;-65
2021/06/30 05:36:13;;;;;;;0.38;0.38;;;18.40;77.00;;;;;;5031961;28;20128;-64
2021/06/30 05:38:39;;;;;;;0.40;0.40;;;18.40;77.00;;;;;;5033676;28;20111;-64
2021/06/30 05:41:05;;;;;;;0.52;0.40;;;18.40;76.80;;;;;;5032948;28;20576;-65
2021/06/30 05:43:32;;;;;;;0.22;0.22;;;18.50;76.70;;;;;;5032765;28;20053;-66
2021/06/30 05:45:58;;;;;;;0.20;0.20;;;18.50;76.60;;;;;;5032710;28;20041;-65
2021/06/30 05:48:25;;;;;;;0.40;0.40;;;18.50;76.50;;;;;;5032986;28;20075;-66
2021/06/30 05:50:51;;;;;;;0.20;0.20;;;18.60;76.50;;;;;;5033135;28;20049;-66
2021/06/30 05:53:17;;;;;;;0.25;0.25;;;18.50;76.30;;;;;;5032567;28;20045;-66
2021/06/30 05:55:44;;;;;;;0.40;0.38;;;18.60;77.30;;;;;;5032376;28;20084;-65
2021/06/30 05:58:10;;;;;;;0.47;0.47;;;18.60;76.30;;;;;;5023340;28;20615;-67
2021/06/30 06:00:37;;;;;;;0.40;0.40;;;18.70;76.40;;;;;;5032387;28;20125;-66
2021/06/30 06:03:03;;;;;;;0.30;0.30;;;18.70;76.30;;;;;;5032835;28;20161;-66
2021/06/30 06:05:29;;;;;;;0.40;0.40;;;18.70;76.10;;;;;;5032794;28;20072;-66
2021/06/30 06:07:56;;;;;;;0.40;0.30;;;18.80;76.00;;;;;;5032062;28;20095;-66
2021/06/30 06:10:22;;;;;;;0.30;0.30;;;18.80;76.40;;;;;;5032688;28;20045;-66
2021/06/30 06:12:48;;;;;;;0.45;0.30;;;18.80;75.60;;;;;;5031039;28;20053;-66
2021/06/30 06:15:15;;;;;;;0.35;0.35;;;18.80;75.60;;;;;;5012003;28;20096;-66
2021/06/30 06:17:41;;;;;;;0.30;0.30;;;18.80;75.50;;;;;;5012691;28;20103;-66
2021/06/30 06:20:09;;;;;;;0.30;0.30;;;18.80;75.60;;;;;;5012163;28;20129;-65
2021/06/30 06:22:36;;;;;;;0.40;0.40;;;18.80;75.70;;;;;;5004248;28;20176;-66
2021/06/30 06:25:05;;;;;;;0.40;0.40;;;18.80;75.60;;;;;;5012595;28;20125;-66
2021/06/30 06:27:32;;;;;;;0.43;0.43;;;18.70;75.60;;;;;;5003012;28;20562;-66
2021/06/30 06:29:59;;;;;;;0.22;0.22;;;18.70;75.70;;;;;;5011176;28;20038;-66
2021/06/30 06:32:25;;;;;;;0.40;0.40;;;18.70;75.90;;;;;;5012531;28;20045;-66
2021/06/30 06:34:52;;;;;;;0.35;0.35;;;18.80;75.90;;;;;;5012500;28;20149;-66
2021/06/30 06:37:19;;;;;;;0.22;0.22;;;18.70;75.90;;;;;;5004033;28;20085;-66
2021/06/30 06:39:46;;;;;;;0.40;0.40;;;18.70;75.90;;;;;;5012600;28;20116;-66
2021/06/30 06:42:13;;;;;;;0.35;0.35;;;18.70;75.50;;;;;;5006043;28;20549;-66
2021/06/30 06:44:41;;;;;;;0.32;0.32;;;18.70;75.60;;;;;;5012055;28;20128;-66
2021/06/30 06:47:08;;;;;;;0.30;0.30;;;18.70;75.70;;;;;;5011706;28;20517;-65
2021/06/30 06:49:35;;;;;;;0.30;0.30;;;18.70;75.70;;;;;;5004887;28;20109;-66
2021/06/30 06:52:01;;;;;;;0.30;0.30;;;18.80;75.70;;;;;;5012361;28;20045;-66
2021/06/30 06:54:28;;;;;;;0.30;0.30;;;18.80;75.70;;;;;;5012591;28;20050;-66
2021/06/30 06:56:54;;;;;;;0.55;0.50;;;18.80;75.60;;;;;;5007504;28;20082;-66
2021/06/30 06:59:21;;;;;;;0.28;0.28;;;18.70;75.50;;;;;;5012035;28;20188;-66
2021/06/30 07:01:47;;;;;;;0.30;0.30;;;18.70;75.60;;;;;;5011395;28;20127;-66
2021/06/30 07:04:13;;;;;;;0.10;0.10;;;18.70;75.70;;;;;;5012004;28;20591;-66
2021/06/30 07:06:40;;;;;;;0.35;0.35;;;18.70;75.90;;;;;;5004086;28;20038;-66
2021/06/30 07:09:06;;;;;;;0.20;0.20;;;18.70;75.90;;;;;;5012322;28;20218;-65
2021/06/30 07:11:33;;;;;;;0.30;0.30;;;18.80;75.90;;;;;;5011184;28;20117;-66
2021/06/30 07:13:59;;;;;;;0.30;0.30;;;18.80;75.80;;;;;;5020973;28;20061;-65
2021/06/30 07:16:26;;;;;;;0.30;0.30;;;18.80;75.70;;;;;;5025665;28;20490;-66
2021/06/30 07:18:53;;;;;;;0.30;0.30;;;18.90;75.70;;;;;;5031704;28;20057;-66
2021/06/30 07:21:20;;;;;;;0.25;0.25;;;18.90;75.60;;;;;;5031125;28;20128;-66
2021/06/30 07:23:46;;;;;;;0.22;0.22;;;18.90;75.60;;;;;;5031752;28;20128;-65
2021/06/30 07:26:12;;;;;;;0.25;0.25;;;18.90;75.50;;;;;;5031318;28;20045;-66
2021/06/30 07:28:39;;;;;;;0.40;0.40;;;18.90;75.50;;;;;;5031717;28;20076;-66
2021/06/30 07:31:06;;;;;;;0.30;0.30;;;18.90;75.60;;;;;;5031387;28;20119;-66
2021/06/30 07:33:33;;;;;;;0.15;0.15;;;19.00;75.50;;;;;;5032163;28;20186;-66
2021/06/30 07:36:00;;;;;;;0.30;0.30;;;19.00;75.40;;;;;;5031847;28;20175;-66
2021/06/30 07:38:26;;;;;;;0.30;0.30;;;19.00;75.10;;;;;;5031808;28;20050;-66
2021/06/30 07:40:53;;;;;;;0.30;0.30;;;19.10;75.10;;;;;;5013603;28;20053;-66
2021/06/30 07:43:19;;;;;;;0.28;0.28;;;19.10;75.00;;;;;;5030852;28;20045;-66
2021/06/30 07:45:46;;;;;;;0.20;0.20;;;19.00;75.00;;;;;;5031360;28;20132;-66
2021/06/30 07:48:12;;;;;;;0.20;0.20;;;19.00;74.90;;;;;;5030850;28;20488;-66
2021/06/30 07:50:38;;;;;;;0.30;0.30;;;19.10;75.00;;;;;;5031245;28;20120;-66
2021/06/30 07:53:05;;;;;;;0.38;0.38;;;19.10;74.90;;;;;;5031299;28;20091;-66
2021/06/30 07:55:32;;;;;;;0.30;0.30;;;19.10;74.70;;;;;;5031139;28;20140;-66
2021/06/30 07:57:58;;;;;;;0.30;0.30;;;19.20;74.70;;;;;;5031432;28;20146;-66
2021/06/30 08:00:25;;;;;;;0.30;0.30;;;19.20;74.30;;;;;;5031450;28;20143;-66
2021/06/30 08:02:51;;;;;;;0.20;0.20;;;19.20;74.10;;;;;;5030918;28;20132;-66
2021/06/30 08:05:17;;;;;;;0.10;0.10;;;19.20;74.20;;;;;;5031159;28;20069;-66
2021/06/30 08:07:43;;;;;;;0.10;0.10;;;19.20;74.20;;;;;;5031332;28;20124;-66
2021/06/30 08:10:10;;;;;;;0.25;0.25;;;19.30;74.20;;;;;;5034952;28;20041;-66
2021/06/30 08:12:37;;;;;;;0.40;0.20;;;19.30;74.00;;;;;;5034894;28;20151;-66
2021/06/30 08:15:05;;;;;;;0.25;0.25;;;19.40;73.90;;;;;;5023534;28;20046;-66
2021/06/30 08:17:32;;;;;;;0.20;0.20;;;19.40;73.80;;;;;;5034518;28;20154;-66
2021/06/30 08:19:58;;;;;;;0.30;0.30;;;19.40;73.90;;;;;;5035019;28;20164;-66
2021/06/30 08:22:24;;;;;;;0.28;0.25;;;19.50;74.00;;;;;;5034517;28;20081;-65
2021/06/30 08:24:51;;;;;;;0.10;0.10;;;19.60;74.70;;;;;;5034669;28;20390;-66
2021/06/30 08:27:20;;;;;;;0.10;0.10;;;19.60;73.50;;;;;;5034724;28;20130;-66
2021/06/30 08:29:46;;;;;;;0.28;0.28;;;19.60;73.40;;;;;;5034658;28;20538;-66
2021/06/30 08:32:12;;;;;;;0.28;0.28;;;19.70;72.90;;;;;;5034516;28;20046;-65
2021/06/30 08:34:39;;;;;;;0.20;0.20;;;19.70;72.80;;;;;;5016022;28;20049;-66
2021/06/30 08:37:07;;;;;;;0.20;0.20;;;19.70;72.60;;;;;;5034432;28;20056;-66
2021/06/30 08:39:34;;;;;;;0.10;0.10;;;19.70;72.60;;;;;;5034316;28;20077;-66
2021/06/30 08:42:02;;;;;;;0.13;0.10;;;19.70;72.70;;;;;;5034551;28;20203;-66
2021/06/30 08:44:28;;;;;;;0.10;0.10;;;19.80;72.70;;;;;;5034489;28;20092;-66
2021/06/30 08:46:56;;;;;;;0.10;0.10;;;19.90;72.10;;;;;;5034358;28;20049;-66
2021/06/30 08:49:26;;;;;;;0.20;0.20;;;19.90;71.80;;;;;;5034272;28;20480;-66
2021/06/30 08:51:54;;;;;;;0.10;0.10;;;19.90;71.70;;;;;;5033684;28;20077;-66
2021/06/30 08:54:22;;;;;;;0.10;0.10;;;19.90;71.80;;;;;;5034465;28;20646;-66
2021/06/30 08:56:49;;;;;;;0.13;0.13;;;20.00;71.60;;;;;;5034210;28;20187;-66
2021/06/30 08:59:16;;;;;;;0.10;0.10;;;20.00;71.40;;;;;;5034356;28;20132;-66
2021/06/30 09:01:44;;;;;;;0.10;0.10;;;20.10;71.50;;;;;;5033783;28;20553;-66
2021/06/30 09:04:13;;;;;;;0.20;0.20;;;20.00;71.00;;;;;;5034468;28;20045;-66
2021/06/30 09:06:39;;;;;;;0.28;0.10;;;20.10;71.80;;;;;;5033288;28;20501;-66
2021/06/30 09:09:13;;;;;;;0.10;0.10;;;20.00;70.60;;;;;;5034180;28;20157;-66
2021/06/30 09:11:41;;;;;;;0.10;0.10;;;20.00;70.90;;;;;;5033869;28;20071;-66
2021/06/30 09:14:16;;;;;;;0.00;0.00;;;20.00;70.70;;;;;;5033520;28;20057;-66
2021/06/30 09:17:06;;;;;;;0.10;0.10;;;20.00;70.60;;;;;;5027485;28;20124;-66
2021/06/30 09:20:03;;;;;;;0.38;0.38;;;19.90;70.90;;;;;;5028218;28;20509;-66
2021/06/30 09:22:51;;;;;;;0.20;0.20;;;19.90;71.20;;;;;;5033124;28;20410;-66
2021/06/30 09:25:44;;;;;;;0.30;0.30;;;19.80;71.50;;;;;;5033711;28;20045;-66
2021/06/30 09:28:19;;;;;;;0.25;0.25;;;19.70;71.60;;;;;;5029831;28;20992;-66
2021/06/30 09:31:07;;;;;;;0.28;0.28;;;19.70;71.80;;;;;;5033676;28;20528;-66
2021/06/30 09:33:51;;;;;;;0.20;0.20;;;19.70;72.00;;;;;;5033606;28;20128;-66
2021/06/30 09:36:18;;;;;;;0.20;0.20;;;19.70;72.10;;;;;;5033005;28;20493;-66
2021/06/30 09:38:45;;;;;;;0.30;0.30;;;19.60;72.30;;;;;;5034074;28;20057;-66
2021/06/30 09:41:26;;;;;;;0.32;0.32;;;19.60;72.60;;;;;;5033869;28;20314;-66
2021/06/30 09:44:02;;;;;;;0.30;0.30;;;19.60;72.90;;;;;;5033324;28;20053;-66
2021/06/30 09:46:29;;;;;;;0.30;0.30;;;19.60;72.90;;;;;;5033092;28;20131;-66
2021/06/30 09:49:07;;;;;;;0.30;0.30;;;19.60;73.00;;;;;;5033260;28;20037;-66
2021/06/30 09:51:33;;;;;;;0.30;0.30;;;19.60;72.90;;;;;;5032379;28;20076;-66
2021/06/30 09:54:19;;;;;;;0.60;0.60;;;19.70;73.00;;;;;;5033292;28;20065;-66
2021/06/30 09:57:08;;;;;;;0.40;0.40;;;19.60;72.70;;;;;;5032770;28;20092;-66
2021/06/30 09:59:39;;;;;;;0.50;0.50;;;19.60;72.80;;;;;;5033098;28;20053;-66
2021/06/30 10:02:12;;;;;;;0.52;0.52;;;19.60;73.20;;;;;;5032096;28;20060;-66
2021/06/30 10:04:40;;;;;;;0.55;0.55;;;19.50;73.50;;;;;;5032622;28;20128;-66
2021/06/30 10:07:28;;;;;;;0.45;0.45;;;19.60;73.60;;;;;;5032513;28;20516;-66
2021/06/30 10:09:57;;;;;;;0.45;0.45;;;19.60;73.80;;;;;;5032359;28;20484;-66
2021/06/30 10:12:26;;;;;;;0.43;0.43;;;19.60;73.90;;;;;;5033092;28;20077;-66
2021/06/30 10:14:53;;;;;;;0.50;0.50;;;19.60;73.90;;;;;;5022770;28;20062;-66
2021/06/30 10:17:21;;;;;;;0.30;0.30;;;19.60;73.50;;;;;;5031230;28;20524;-66
2021/06/30 10:19:51;;;;;;;0.40;0.40;;;19.70;73.50;;;;;;5032268;28;20053;-66
2021/06/30 10:22:18;;;;;;;0.40;0.40;;;19.80;73.50;;;;;;5032690;28;20139;-66
2021/06/30 10:24:44;;;;;;;0.20;0.20;;;19.80;73.10;;;;;;5032885;28;20490;-66
2021/06/30 10:27:13;;;;;;;0.28;0.28;;;19.90;72.90;;;;;;5032296;28;20429;-66
2021/06/30 10:29:43;;;;;;;0.30;0.30;;;19.90;72.60;;;;;;5032387;28;20042;-66
2021/06/30 10:32:14;;;;;;;0.40;0.40;;;20.00;72.60;;;;;;5031274;28;20139;-66
2021/06/30 10:34:46;;;;;;;0.30;0.30;;;20.10;72.50;;;;;;5031967;28;20077;-66
2021/06/30 10:37:27;;;;;;;0.52;0.52;;;20.10;72.00;;;;;;5030610;28;20098;-66
2021/06/30 10:40:10;;;;;;;0.50;0.50;;;20.10;72.80;;;;;;5031997;28;20046;-66
2021/06/30 10:42:46;;;;;;;0.40;0.40;;;20.10;72.00;;;;;;5032079;28;20049;-66
2021/06/30 10:45:12;;;;;;;0.40;0.40;;;20.10;71.80;;;;;;5018992;28;20054;-66
2021/06/30 10:47:42;;;;;;;0.32;0.32;;;20.10;72.00;;;;;;5032422;28;20073;-66
2021/06/30 10:50:38;;;;;;;0.20;0.20;;;20.10;72.20;;;;;;5032633;28;20428;-66
2021/06/30 10:53:04;;;;;;;0.20;0.20;;;20.10;72.20;;;;;;5032109;28;20132;-66
2021/06/30 10:55:35;;;;;;;0.43;0.43;;;20.10;72.00;;;;;;5031843;28;20394;-66
2021/06/30 10:58:22;;;;;;;0.20;0.20;;;20.20;71.90;;;;;;5031582;28;20092;-66
2021/06/30 11:00:50;;;;;;;0.30;0.30;;;20.30;72.10;;;;;;5031331;28;20057;-66
2021/06/30 11:03:30;;;;;;;0.30;0.30;;;20.30;72.10;;;;;;5031461;28;20136;-66
2021/06/30 11:06:17;;;;;;;0.32;0.32;;;20.30;71.30;;;;;;5031577;28;20172;-66
2021/06/30 11:08:56;;;;;;;0.20;0.20;;;20.30;71.20;;;;;;5029617;28;20448;-66
2021/06/30 11:11:37;;;;;;;0.30;0.30;;;20.30;71.40;;;;;;5031546;28;20560;-66
2021/06/30 11:14:09;;;;;;;0.30;0.30;;;20.30;71.60;;;;;;5017246;28;20049;-66
2021/06/30 11:19:14;;;;;;;0.30;0.30;;;20.40;71.20;;;;;;5031473;28;20056;-66
2021/06/30 11:21:47;;;;;;;0.30;0.30;;;20.40;71.90;;;;;;5031299;28;20120;-66
2021/06/30 11:24:39;;;;;;;0.20;0.20;;;20.40;70.80;;;;;;5031505;28;20053;-66
2021/06/30 11:27:22;;;;;;;0.30;0.30;;;20.40;71.00;;;;;;5031538;28;20096;-66
2021/06/30 11:29:51;;;;;;;0.32;0.32;;;20.50;71.10;;;;;;5031017;28;20046;-66
2021/06/30 11:32:39;;;;;;;0.20;0.20;;;20.50;71.20;;;;;;5031539;28;20195;-66
2021/06/30 11:35:19;;;;;;;0.40;0.40;;;20.50;71.30;;;;;;5031632;28;20191;-66
2021/06/30 11:37:53;;;;;;;0.30;0.30;;;20.40;70.90;;;;;;5031617;28;20138;-66
2021/06/30 11:40:28;;;;;;;0.22;0.22;;;20.30;71.00;;;;;;5032576;28;20084;-66
2021/06/30 11:42:58;;;;;;;0.20;0.20;;;20.30;71.20;;;;;;5031948;28;20132;-66
2021/06/30 11:45:33;;;;;;;0.30;0.30;;;20.30;71.30;;;;;;5036342;28;20081;-66
2021/06/30 11:48:05;;;;;;;0.40;0.40;;;20.30;71.30;;;;;;5035313;28;20195;-66
2021/06/30 11:51:00;;;;;;;0.20;0.20;;;20.30;71.30;;;;;;5035604;28;20103;-66
2021/06/30 11:53:38;;;;;;;0.30;0.30;;;20.20;71.40;;;;;;5034973;28;20132;-66
2021/06/30 11:56:07;;;;;;;0.30;0.30;;;20.20;71.40;;;;;;5017193;28;20131;-66
2021/06/30 11:58:42;;;;;;;0.30;0.30;;;20.30;71.30;;;;;;5034913;28;20528;-66
2021/06/30 12:01:29;;;;;;;0.10;0.10;;;20.30;71.10;;;;;;5035225;28;20100;-66
2021/06/30 12:04:26;;;;;;;0.30;0.30;;;20.30;71.20;;;;;;5035092;28;20404;-66
2021/06/30 12:06:59;;;;;;;0.05;0.05;;;20.30;71.00;;;;;;5011956;28;20049;-66
2021/06/30 12:09:27;;;;;;;0.20;0.20;;;20.30;71.00;;;;;;5035297;28;20045;-66
2021/06/30 12:12:12;;;;;;;0.30;0.30;;;20.30;71.10;;;;;;5016477;28;20453;-66
2021/06/30 12:14:41;;;;;;;0.30;0.30;;;20.40;71.10;;;;;;5034521;28;20505;-66
2021/06/30 12:17:09;;;;;;;0.20;0.20;;;20.40;70.90;;;;;;5034676;28;20053;-66
2021/06/30 12:19:41;;;;;;;0.32;0.20;;;20.50;70.70;;;;;;5034983;28;20124;-66
2021/06/30 12:22:22;;;;;;;0.20;0.20;;;20.50;70.80;;;;;;5034185;28;20120;-66
2021/06/30 12:25:16;;;;;;;0.20;0.20;;;20.60;70.70;;;;;;5034788;28;20734;-66
2021/06/30 12:27:59;;;;;;;0.15;0.15;;;20.60;70.70;;;;;;5034459;28;20121;-66
2021/06/30 12:30:36;;;;;;;0.30;0.30;;;20.60;70.90;;;;;;5034565;28;20045;-66
2021/06/30 12:33:11;;;;;;;0.20;0.20;;;20.60;70.60;;;;;;5034929;28;20049;-66
2021/06/30 12:35:56;;;;;;;0.30;0.30;;;20.60;70.60;;;;;;5035540;28;20560;-65
2021/06/30 12:38:26;;;;;;;0.17;0.17;;;20.60;70.60;;;;;;5030338;28;20128;-66
2021/06/30 12:41:07;;;;;;;0.25;0.25;;;20.60;70.50;;;;;;5034377;28;20132;-66
2021/06/30 12:43:34;;;;;;;0.30;0.30;;;20.70;70.60;;;;;;5033964;28;20049;-66
2021/06/30 12:46:01;;;;;;;0.20;0.20;;;20.70;70.00;;;;;;5033969;28;20049;-66
2021/06/30 12:48:32;;;;;;;0.20;0.20;;;20.70;69.70;;;;;;5034324;28;20072;-66
2021/06/30 12:51:15;;;;;;;0.30;0.30;;;20.80;69.80;;;;;;5034511;28;20041;-66
2021/06/30 12:53:44;;;;;;;0.20;0.20;;;20.80;69.80;;;;;;5034120;28;20564;-66
2021/06/30 12:56:22;;;;;;;0.30;0.30;;;20.80;69.90;;;;;;5032770;28;20524;-66
2021/06/30 12:58:52;;;;;;;0.20;0.20;;;20.80;70.10;;;;;;5020697;28;20524;-66
2021/06/30 13:01:26;;;;;;;0.35;0.35;;;20.80;70.10;;;;;;5034036;28;20042;-66